Time;durP1;ratioP1;P1;durP2;ratioP2;P2;SDS_P1;SDS_P2;PMS_P1;PMS_P2;Temp;Humidity;BMP_temperature;BMP_pressure;BME280_temperature;BME280_humidity;BME280_pressure;Samples;Min_cycle;Max_cycle;Signal;HPM_P1;HPM_P2
2021/12/31 00:00:08;;;;;;;63.33;29.27;;;;;;;-0.53;65.56;100617.05;1645332;85;21692;-68
2021/12/31 00:02:35;;;;;;;67.10;31.48;;;;;;;-0.51;65.61;100613.75;1677296;85;21083;-68
2021/12/31 00:05:01;;;;;;;70.52;32.20;;;;;;;-0.51;65.64;100609.31;1671712;85;21520;-68
2021/12/31 00:07:28;;;;;;;71.90;33.10;;;;;;;-0.50;65.68;100604.88;1651929;85;21023;-68
2021/12/31 00:09:59;;;;;;;65.42;32.00;;;;;;;-0.45;65.69;100599.91;1651615;85;21585;-67
2021/12/31 00:12:23;;;;;;;65.08;31.33;;;;;;;-0.41;65.75;100585.41;1677728;85;21027;-68
2021/12/31 00:14:50;;;;;;;69.75;33.45;;;;;;;-0.36;65.71;100587.00;1645710;85;20985;-68
2021/12/31 00:17:17;;;;;;;62.43;32.23;;;;;;;-0.32;65.74;100586.94;1669076;85;21098;-68
2021/12/31 00:19:46;;;;;;;73.10;32.23;;;;;;;-0.26;65.82;100579.64;1676569;85;21058;-69
2021/12/31 00:24:45;;;;;;;68.37;32.60;;;;;;;-0.17;66.00;100576.38;1645910;85;21598;-68
2021/12/31 00:27:11;;;;;;;60.35;32.00;;;;;;;-0.12;66.01;100577.97;1676980;85;21107;-67
2021/12/31 00:29:40;;;;;;;61.73;31.50;;;;;;;-0.13;65.94;100576.82;1658700;85;21124;-67
2021/12/31 00:32:07;;;;;;;62.85;32.63;;;;;;;-0.17;65.89;100582.14;1658506;85;20996;-67
2021/12/31 00:34:33;;;;;;;61.63;30.62;;;;;;;-0.22;65.89;100590.58;1647829;85;21072;-67
2021/12/31 00:37:00;;;;;;;64.87;32.88;;;;;;;-0.26;65.99;100600.64;1662885;85;21057;-67
2021/12/31 00:39:26;;;;;;;60.10;29.27;;;;;;;-0.30;66.08;100590.17;1658783;85;21050;-68
2021/12/31 00:41:53;;;;;;;62.62;31.12;;;;;;;-0.27;66.22;100577.99;1677337;84;21473;-68
2021/12/31 00:44:21;;;;;;;63.95;32.50;;;;;;;-0.25;66.32;100572.58;1672760;85;21045;-67
2021/12/31 00:46:48;;;;;;;60.00;31.05;;;;;;;-0.19;66.46;100572.34;1672413;84;21617;-67
2021/12/31 00:49:16;;;;;;;59.15;31.20;;;;;;;-0.14;66.49;100567.33;1677214;85;21219;-67
2021/12/31 00:51:43;;;;;;;58.02;31.10;;;;;;;-0.11;66.52;100558.58;1668745;85;21171;-67
2021/12/31 00:54:10;;;;;;;60.78;31.15;;;;;;;-0.06;66.49;100538.34;1654813;85;21498;-66
2021/12/31 00:56:36;;;;;;;58.33;31.00;;;;;;;-0.07;66.45;100536.70;1645284;85;21072;-68
2021/12/31 00:59:02;;;;;;;57.48;31.12;;;;;;;-0.08;66.47;100546.39;1656652;85;21085;-66
2021/12/31 01:01:31;;;;;;;60.80;31.82;;;;;;;-0.07;66.48;100549.83;1664701;85;21701;-67
2021/12/31 01:03:57;;;;;;;59.30;30.43;;;;;;;-0.05;66.50;100546.02;1661161;85;21051;-67
2021/12/31 01:06:24;;;;;;;56.30;31.50;;;;;;;-0.06;66.43;100547.53;1675684;85;22121;-68
2021/12/31 01:08:53;;;;;;;55.73;30.57;;;;;;;-0.06;66.48;100535.72;1648111;85;21565;-68
2021/12/31 01:11:19;;;;;;;59.88;31.45;;;;;;;-0.05;66.49;100528.95;1677457;85;21641;-68
2021/12/31 01:13:55;;;;;;;55.52;30.30;;;;;;;-0.06;66.46;100522.59;1646064;85;21094;-68
2021/12/31 01:16:19;;;;;;;51.40;27.90;;;;;;;-0.07;66.45;100524.88;1646050;85;21037;-68
2021/12/31 01:21:20;;;;;;;52.80;30.05;;;;;;;-0.11;66.49;100527.07;1677871;85;21004;-68
2021/12/31 01:23:50;;;;;;;51.02;28.05;;;;;;;-0.10;66.54;100530.51;1677811;85;21024;-67
2021/12/31 01:26:17;;;;;;;52.40;29.07;;;;;;;-0.15;66.45;100530.27;1647052;85;21053;-68
2021/12/31 01:28:44;;;;;;;47.48;27.77;;;;;;;-0.25;66.55;100532.70;1662999;85;21060;-69
2021/12/31 01:31:12;;;;;;;50.83;29.23;;;;;;;-0.30;66.66;100528.50;1660903;85;21063;-68
2021/12/31 01:33:38;;;;;;;51.05;28.60;;;;;;;-0.35;66.78;100517.76;1645554;85;21058;-68
2021/12/31 01:36:06;;;;;;;50.85;29.42;;;;;;;-0.33;66.89;100522.34;1661094;85;21605;-68
2021/12/31 01:38:35;;;;;;;51.00;29.40;;;;;;;-0.30;66.96;100511.44;1675475;85;21538;-68
2021/12/31 01:41:02;;;;;;;47.88;27.25;;;;;;;-0.29;66.98;100510.45;1660471;85;21589;-68
2021/12/31 01:43:29;;;;;;;47.10;27.75;;;;;;;-0.28;66.99;100506.82;1658612;85;21562;-68
2021/12/31 01:46:00;;;;;;;48.95;27.73;;;;;;;-0.29;67.10;100493.90;1677316;85;21062;-69
2021/12/31 01:48:47;;;;;;;52.43;29.32;;;;;;;-0.27;67.18;100490.57;1664703;84;21027;-68
2021/12/31 01:51:04;;;;;;;44.83;24.75;;;;;;;-0.24;67.18;100486.27;1647331;85;21650;-68
2021/12/31 01:53:32;;;;;;;47.43;28.10;;;;;;;-0.22;67.19;100493.97;1667179;85;21608;-69
2021/12/31 01:56:00;;;;;;;45.05;26.25;;;;;;;-0.25;67.14;100488.08;1665208;85;21789;-68
2021/12/31 01:58:27;;;;;;;45.92;27.52;;;;;;;-0.28;67.19;100482.39;1645913;85;21576;-67
2021/12/31 02:00:56;;;;;;;46.70;27.30;;;;;;;-0.30;67.23;100479.13;1677362;84;21581;-68
2021/12/31 02:03:24;;;;;;;46.10;27.15;;;;;;;-0.30;67.32;100477.82;1669208;85;21563;-68
2021/12/31 02:05:51;;;;;;;47.25;27.13;;;;;;;-0.30;67.35;100470.75;1655237;85;21597;-68
2021/12/31 02:08:18;;;;;;;44.83;26.12;;;;;;;-0.27;67.41;100461.70;1663625;85;21503;-68
2021/12/31 02:10:50;;;;;;;42.45;25.27;;;;;;;-0.21;67.46;100465.39;1663853;85;21122;-68
2021/12/31 02:13:18;;;;;;;44.67;26.17;;;;;;;-0.18;67.42;100455.83;1656855;86;21097;-68
2021/12/31 02:15:47;;;;;;;42.08;25.32;;;;;;;-0.15;67.41;100454.14;1654373;85;21405;-68
2021/12/31 02:18:14;;;;;;;42.40;24.45;;;;;;;-0.13;67.40;100452.96;1656743;85;21158;-69
2021/12/31 02:20:48;;;;;;;41.18;24.85;;;;;;;-0.13;67.29;100469.19;1677350;85;21947;-68
2021/12/31 02:23:22;;;;;;;44.25;25.65;;;;;;;-0.17;67.26;100463.50;1645680;85;21116;-68
2021/12/31 02:25:48;;;;;;;42.50;24.52;;;;;;;-0.22;67.26;100457.22;1662757;85;22093;-69
2021/12/31 02:28:15;;;;;;;40.85;23.55;;;;;;;-0.28;67.35;100457.45;1658455;85;21109;-69
2021/12/31 02:30:43;;;;;;;42.33;25.02;;;;;;;-0.30;67.47;100460.77;1677415;85;21348;-68
2021/12/31 02:33:12;;;;;;;40.58;24.30;;;;;;;-0.36;67.60;100453.63;1645792;85;21536;-67
2021/12/31 02:35:40;;;;;;;40.40;23.45;;;;;;;-0.34;67.62;100456.39;1678259;84;20999;-68
2021/12/31 02:38:07;;;;;;;42.17;24.85;;;;;;;-0.35;67.61;100453.97;1648495;84;21141;-68
2021/12/31 02:40:35;;;;;;;40.95;24.45;;;;;;;-0.40;67.75;100457.64;1666150;85;21652;-68
2021/12/31 02:43:03;;;;;;;39.60;23.98;;;;;;;-0.41;67.87;100455.52;1664697;85;21034;-68
2021/12/31 02:45:34;;;;;;;40.60;23.50;;;;;;;-0.37;68.02;100453.33;1669077;85;21122;-69
2021/12/31 02:48:02;;;;;;;43.13;24.85;;;;;;;-0.27;68.00;100451.20;1673486;85;21053;-67
2021/12/31 02:50:38;;;;;;;41.25;25.20;;;;;;;-0.18;67.98;100444.83;1673468;85;21547;-67
2021/12/31 02:53:10;;;;;;;38.88;24.20;;;;;;;-0.09;67.95;100444.20;1674705;85;21059;-67
2021/12/31 02:55:36;;;;;;;40.55;24.30;;;;;;;0.01;67.89;100442.06;1679003;85;21606;-69
2021/12/31 02:58:05;;;;;;;41.50;25.27;;;;;;;0.05;67.79;100435.41;1679744;85;21105;-72
2021/12/31 03:00:31;;;;;;;41.65;25.30;;;;;;;0.09;67.76;100435.34;1678177;85;21074;-70
2021/12/31 03:02:59;;;;;;;42.45;24.00;;;;;;;0.13;67.65;100431.83;1678300;85;21664;-69
2021/12/31 03:05:27;;;;;;;40.70;23.12;;;;;;;0.12;67.58;100432.33;1667548;85;21061;-69
2021/12/31 03:07:55;;;;;;;40.20;24.30;;;;;;;0.16;67.49;100430.13;1677933;85;21114;-68
2021/12/31 03:10:22;;;;;;;42.70;24.65;;;;;;;0.19;67.44;100428.44;1678260;85;21546;-70
2021/12/31 03:12:51;;;;;;;40.85;24.57;;;;;;;0.23;67.38;100423.10;1676718;85;21052;-69
2021/12/31 03:15:19;;;;;;;40.05;24.32;;;;;;;0.23;67.34;100427.88;1676366;85;21508;-69
2021/12/31 03:17:46;;;;;;;39.30;23.87;;;;;;;0.23;67.24;100427.88;1649004;85;21699;-67
2021/12/31 03:20:17;;;;;;;40.20;23.90;;;;;;;0.22;67.21;100432.00;1676514;85;21060;-69
2021/12/31 03:22:43;;;;;;;40.17;23.67;;;;;;;0.21;67.22;100431.69;1676831;85;21153;-69
2021/12/31 03:25:11;;;;;;;39.13;23.95;;;;;;;0.21;67.27;100427.25;1676787;83;21060;-69
2021/12/31 03:27:38;;;;;;;41.77;25.20;;;;;;;0.19;67.23;100429.24;1678256;85;21060;-68
2021/12/31 03:30:07;;;;;;;39.45;24.07;;;;;;;0.13;67.30;100436.60;1677741;84;21064;-70
2021/12/31 03:32:35;;;;;;;39.67;24.32;;;;;;;0.12;67.44;100432.84;1678303;85;21100;-69
2021/12/31 03:35:03;;;;;;;41.18;24.50;;;;;;;0.09;67.55;100431.40;1678128;85;21150;-69
2021/12/31 03:37:29;;;;;;;41.55;24.98;;;;;;;0.08;67.70;100435.03;1679787;85;21032;-69
2021/12/31 03:39:57;;;;;;;40.85;24.23;;;;;;;0.08;67.88;100428.47;1682439;85;20964;-69
2021/12/31 03:42:24;;;;;;;43.40;25.57;;;;;;;0.12;68.08;100430.21;1682656;85;21064;-68
2021/12/31 03:44:51;;;;;;;38.60;22.32;;;;;;;0.16;68.21;100430.13;1682421;84;21574;-69
2021/12/31 03:47:17;;;;;;;43.63;25.48;;;;;;;0.21;68.40;100422.50;1681471;84;21467;-69
2021/12/31 03:49:44;;;;;;;41.70;25.20;;;;;;;0.21;68.42;100421.99;1681631;85;21032;-69
2021/12/31 03:52:11;;;;;;;43.08;25.68;;;;;;;0.23;68.55;100422.63;1681599;85;20993;-70
2021/12/31 03:54:38;;;;;;;45.43;26.23;;;;;;;0.24;68.61;100419.49;1681159;85;21024;-69
2021/12/31 03:57:04;;;;;;;41.33;24.67;;;;;;;0.22;68.71;100411.79;1681079;85;21050;-68
2021/12/31 03:59:31;;;;;;;45.30;26.80;;;;;;;0.24;68.81;100412.92;1681197;85;21477;-68
2021/12/31 04:01:58;;;;;;;44.18;26.02;;;;;;;0.27;68.88;100411.73;1681264;85;20945;-69
2021/12/31 04:04:24;;;;;;;45.65;26.93;;;;;;;0.28;69.03;100407.59;1680890;85;20957;-68
2021/12/31 04:06:52;;;;;;;43.87;25.65;;;;;;;0.32;69.15;100410.13;1680388;85;21051;-69
2021/12/31 04:09:19;;;;;;;47.30;26.57;;;;;;;0.36;69.17;100406.14;1679610;85;20953;-68
2021/12/31 04:11:46;;;;;;;45.33;25.65;;;;;;;0.38;69.25;100400.17;1679175;85;21158;-68
2021/12/31 04:14:12;;;;;;;42.60;25.62;;;;;;;0.43;69.27;100396.98;1679646;85;21813;-68
2021/12/31 04:16:40;;;;;;;41.68;24.50;;;;;;;0.44;69.33;100393.33;1679485;85;21020;-68
2021/12/31 04:19:08;;;;;;;45.48;26.57;;;;;;;0.47;69.38;100394.27;1682680;85;20989;-68
2021/12/31 04:21:35;;;;;;;44.75;26.48;;;;;;;0.50;69.39;100391.75;1680985;85;20948;-70
2021/12/31 04:24:08;;;;;;;42.73;24.90;;;;;;;0.51;69.47;100392.05;1679640;85;21526;-70
2021/12/31 04:26:34;;;;;;;44.23;25.55;;;;;;;0.56;69.55;100391.78;1679338;85;20948;-69
2021/12/31 04:29:02;;;;;;;43.60;25.40;;;;;;;0.57;69.53;100387.34;1679353;85;21000;-69
2021/12/31 04:31:29;;;;;;;42.90;25.55;;;;;;;0.58;69.57;100397.64;1679397;85;21016;-69
2021/12/31 04:33:59;;;;;;;44.40;25.62;;;;;;;0.61;69.63;100391.19;1677972;85;21499;-68
2021/12/31 04:36:26;;;;;;;44.08;25.90;;;;;;;0.62;69.66;100389.66;1677648;85;22173;-69
2021/12/31 04:38:53;;;;;;;44.98;26.30;;;;;;;0.64;69.61;100396.05;1678899;85;21101;-69
2021/12/31 04:41:21;;;;;;;41.40;25.77;;;;;;;0.64;69.70;100395.55;1679438;84;21020;-69
2021/12/31 04:43:49;;;;;;;47.13;26.97;;;;;;;0.64;69.80;100384.23;1679381;85;21037;-69
2021/12/31 04:46:16;;;;;;;45.30;26.50;;;;;;;0.69;69.87;100389.69;1676466;85;21056;-68
2021/12/31 04:48:43;;;;;;;43.08;26.27;;;;;;;0.71;69.85;100381.12;1678069;85;21151;-69
2021/12/31 04:51:10;;;;;;;45.60;27.10;;;;;;;0.72;69.94;100373.53;1677436;85;21515;-69
2021/12/31 04:53:37;;;;;;;47.15;26.97;;;;;;;0.77;70.07;100364.56;1678224;85;20969;-70
2021/12/31 04:56:04;;;;;;;45.73;26.30;;;;;;;0.81;70.06;100364.98;1678144;85;20961;-69
2021/12/31 04:58:30;;;;;;;45.25;26.77;;;;;;;0.86;70.04;100368.64;1677883;85;21041;-69
2021/12/31 05:00:57;;;;;;;44.85;26.33;;;;;;;0.84;70.00;100366.70;1677665;85;21141;-69
2021/12/31 05:03:24;;;;;;;44.55;26.17;;;;;;;0.87;70.06;100367.62;1677575;85;21000;-67
2021/12/31 05:05:50;;;;;;;43.68;25.02;;;;;;;0.89;70.04;100369.56;1679567;85;21063;-68
2021/12/31 05:08:19;;;;;;;45.40;26.27;;;;;;;0.90;70.01;100368.55;1679398;85;20971;-68
2021/12/31 05:10:46;;;;;;;40.15;24.65;;;;;;;0.88;70.04;100365.29;1678875;85;21107;-68
2021/12/31 05:13:15;;;;;;;43.58;25.65;;;;;;;0.90;70.05;100363.28;1678612;85;21488;-69
2021/12/31 05:15:48;;;;;;;46.58;27.17;;;;;;;0.92;70.07;100363.07;1677971;85;21063;-68
2021/12/31 05:18:12;;;;;;;45.40;26.52;;;;;;;0.96;70.08;100361.69;1677178;85;21012;-68
2021/12/31 05:20:39;;;;;;;44.45;26.70;;;;;;;0.97;70.06;100361.98;1677809;85;21498;-68
2021/12/31 05:23:06;;;;;;;45.45;26.15;;;;;;;0.96;70.05;100357.75;1677974;85;21566;-68
2021/12/31 05:25:33;;;;;;;46.15;26.30;;;;;;;0.94;70.11;100349.23;1677791;85;21959;-69
2021/12/31 05:27:59;;;;;;;42.50;25.02;;;;;;;0.91;70.17;100344.38;1678041;85;21023;-69
2021/12/31 05:30:26;;;;;;;43.35;26.30;;;;;;;0.91;70.22;100348.31;1677787;85;21531;-69
2021/12/31 05:32:53;;;;;;;45.98;26.62;;;;;;;0.93;70.29;100354.20;1678091;85;21535;-68
2021/12/31 05:35:19;;;;;;;45.50;25.82;;;;;;;0.91;70.28;100352.26;1677764;85;21099;-68
2021/12/31 05:37:46;;;;;;;45.05;25.68;;;;;;;0.93;70.36;100352.87;1679382;85;21854;-69
2021/12/31 05:40:13;;;;;;;44.27;25.88;;;;;;;0.94;70.43;100363.70;1678986;85;21471;-69
2021/12/31 05:42:39;;;;;;;40.75;24.30;;;;;;;0.91;70.48;100348.31;1679598;85;20969;-69
2021/12/31 05:45:09;;;;;;;43.92;25.62;;;;;;;0.89;70.60;100337.20;1679066;85;21047;-68
2021/12/31 05:47:38;;;;;;;45.20;26.42;;;;;;;0.91;70.63;100339.91;1679577;85;21494;-69
2021/12/31 05:50:10;;;;;;;46.25;26.57;;;;;;;0.91;70.68;100343.86;1679236;85;22003;-70
2021/12/31 05:52:36;;;;;;;46.00;26.37;;;;;;;0.91;70.71;100346.49;1679629;85;21499;-68
2021/12/31 05:55:05;;;;;;;44.20;26.42;;;;;;;0.94;70.83;100343.98;1679264;85;21122;-69
2021/12/31 05:57:33;;;;;;;47.08;26.93;;;;;;;0.96;70.84;100344.59;1679581;84;21119;-68
2021/12/31 06:00:00;;;;;;;46.40;27.15;;;;;;;1.00;70.86;100343.19;1679352;85;21066;-69
2021/12/31 06:02:27;;;;;;;45.50;25.82;;;;;;;1.02;70.84;100346.44;1679887;85;21471;-69
2021/12/31 06:04:57;;;;;;;43.63;26.33;;;;;;;1.04;70.85;100351.48;1679148;85;21032;-67
2021/12/31 06:07:24;;;;;;;43.30;25.43;;;;;;;1.07;70.88;100345.83;1679964;85;20979;-68
2021/12/31 06:09:52;;;;;;;44.63;25.92;;;;;;;1.07;70.87;100347.95;1679446;85;21070;-68
2021/12/31 06:12:19;;;;;;;45.05;25.92;;;;;;;1.06;70.87;100352.91;1679984;85;21008;-68
2021/12/31 06:14:46;;;;;;;43.23;25.90;;;;;;;1.07;70.95;100354.52;1679256;85;21597;-68
2021/12/31 06:17:21;;;;;;;43.65;26.12;;;;;;;1.10;71.03;100359.39;1679572;85;20988;-68
2021/12/31 06:19:46;;;;;;;43.90;27.13;;;;;;;1.12;71.08;100353.44;1679028;85;21066;-68
2021/12/31 06:22:12;;;;;;;43.60;25.72;;;;;;;1.18;71.10;100363.64;1678088;85;21645;-69
2021/12/31 06:24:41;;;;;;;42.83;26.15;;;;;;;1.21;71.08;100368.50;1678027;85;21052;-69
2021/12/31 06:27:09;;;;;;;44.83;25.72;;;;;;;1.24;71.02;100365.98;1677922;85;21143;-69
2021/12/31 06:29:36;;;;;;;46.63;27.32;;;;;;;1.25;71.00;100367.59;1677826;85;20999;-68
2021/12/31 06:32:03;;;;;;;47.15;26.77;;;;;;;1.23;70.99;100363.06;1678021;85;20989;-69
2021/12/31 06:34:31;;;;;;;44.08;26.87;;;;;;;1.23;71.12;100369.13;1678118;85;21553;-68
2021/12/31 06:36:59;;;;;;;44.08;25.80;;;;;;;1.25;71.19;100366.28;1679472;85;21087;-69
2021/12/31 06:39:26;;;;;;;43.13;26.45;;;;;;;1.27;71.16;100355.06;1679616;85;22195;-69
2021/12/31 06:41:53;;;;;;;47.93;27.65;;;;;;;1.29;71.19;100355.17;1679487;85;21478;-69
2021/12/31 06:44:20;;;;;;;42.85;25.50;;;;;;;1.32;71.25;100358.72;1679602;85;21043;-69
2021/12/31 06:46:48;;;;;;;45.35;26.17;;;;;;;1.33;71.28;100360.84;1677497;85;20956;-68
2021/12/31 06:49:15;;;;;;;47.45;27.25;;;;;;;1.36;71.36;100370.97;1677998;85;21008;-69
2021/12/31 06:51:42;;;;;;;45.65;27.07;;;;;;;1.40;71.39;100374.81;1678031;85;21154;-68
2021/12/31 06:54:09;;;;;;;46.58;27.93;;;;;;;1.43;71.41;100375.73;1677607;85;21119;-68
2021/12/31 06:56:37;;;;;;;43.90;26.05;;;;;;;1.49;71.40;100376.75;1678137;85;20984;-68
2021/12/31 06:59:05;;;;;;;45.88;27.15;;;;;;;1.51;71.44;100370.77;1677922;85;20992;-68
2021/12/31 07:01:32;;;;;;;47.35;27.90;;;;;;;1.54;71.50;100371.67;1678841;85;21451;-68
2021/12/31 07:04:00;;;;;;;48.00;28.30;;;;;;;1.57;71.56;100369.45;1679432;85;21151;-68
2021/12/31 07:06:28;;;;;;;44.98;26.80;;;;;;;1.60;71.61;100372.99;1679400;85;20976;-68
2021/12/31 07:08:55;;;;;;;44.88;26.57;;;;;;;1.61;71.65;100360.16;1678373;85;21071;-69
2021/12/31 07:11:23;;;;;;;48.38;27.80;;;;;;;1.66;71.71;100358.73;1678014;85;21048;-69
2021/12/31 07:13:50;;;;;;;47.13;25.88;;;;;;;1.70;71.75;100359.94;1677951;85;21071;-69
2021/12/31 07:16:18;;;;;;;47.35;27.42;;;;;;;1.75;71.87;100358.84;1677828;85;21153;-69
2021/12/31 07:18:44;;;;;;;47.03;26.82;;;;;;;1.81;71.88;100355.36;1677645;85;21249;-69
2021/12/31 07:21:11;;;;;;;45.90;26.87;;;;;;;1.86;71.90;100355.57;1678177;85;21443;-69
2021/12/31 07:23:37;;;;;;;47.58;26.80;;;;;;;1.92;72.00;100353.95;1678035;85;21103;-69
2021/12/31 07:26:04;;;;;;;50.05;28.83;;;;;;;1.95;72.05;100351.72;1678167;85;20992;-69
2021/12/31 07:28:33;;;;;;;46.85;27.30;;;;;;;2.02;72.03;100355.14;1678337;85;21526;-69
2021/12/31 07:31:00;;;;;;;47.20;27.20;;;;;;;2.05;72.04;100354.73;1677704;85;21012;-68
2021/12/31 07:33:28;;;;;;;44.03;27.02;;;;;;;2.10;72.04;100351.47;1678462;85;20997;-69
2021/12/31 07:35:57;;;;;;;45.88;26.45;;;;;;;2.17;72.04;100347.50;1678092;85;21023;-69
2021/12/31 07:38:35;;;;;;;44.90;27.10;;;;;;;2.19;71.98;100344.16;1678253;85;21068;-69
2021/12/31 07:41:01;;;;;;;46.40;26.30;;;;;;;2.22;72.05;100355.61;1677692;85;22112;-68
2021/12/31 07:43:27;;;;;;;49.18;27.90;;;;;;;2.26;72.12;100354.17;1677977;85;21579;-68
2021/12/31 07:45:56;;;;;;;45.20;26.42;;;;;;;2.30;72.09;100353.57;1677853;85;21491;-68
2021/12/31 07:48:24;;;;;;;46.20;26.77;;;;;;;2.33;72.05;100346.54;1678316;85;21080;-69
2021/12/31 07:50:52;;;;;;;44.35;26.00;;;;;;;2.38;72.11;100353.03;1678087;85;21072;-69
2021/12/31 07:53:19;;;;;;;47.90;27.52;;;;;;;2.41;72.12;100353.42;1678455;85;22101;-69
2021/12/31 07:55:46;;;;;;;47.15;26.55;;;;;;;2.44;72.15;100353.53;1677565;85;21545;-70
2021/12/31 07:58:13;;;;;;;43.95;26.87;;;;;;;2.47;72.17;100344.69;1678153;85;21530;-68
2021/12/31 08:00:39;;;;;;;47.45;27.55;;;;;;;2.53;72.17;100345.66;1678965;85;20972;-68
2021/12/31 08:03:06;;;;;;;47.67;27.58;;;;;;;2.59;72.15;100347.47;1679842;85;21015;-68
2021/12/31 08:05:33;;;;;;;44.93;26.60;;;;;;;2.65;72.21;100348.46;1679203;85;21083;-68
2021/12/31 08:08:01;;;;;;;48.28;27.95;;;;;;;2.70;72.18;100342.88;1679631;85;21547;-68
2021/12/31 08:10:29;;;;;;;48.52;27.95;;;;;;;2.75;72.14;100336.95;1679347;85;21031;-69
2021/12/31 08:12:55;;;;;;;45.67;26.35;;;;;;;2.78;72.11;100336.53;1679756;85;21019;-68
2021/12/31 08:15:22;;;;;;;46.05;28.12;;;;;;;2.85;72.12;100329.91;1679254;85;20948;-69
2021/12/31 08:17:49;;;;;;;48.68;27.22;;;;;;;2.89;72.11;100330.58;1679585;85;21537;-69
2021/12/31 08:20:16;;;;;;;46.37;28.12;;;;;;;2.94;72.10;100329.95;1679294;85;21107;-69
2021/12/31 08:22:43;;;;;;;46.63;27.40;;;;;;;2.97;72.10;100330.86;1679488;85;21610;-69
2021/12/31 08:25:10;;;;;;;44.33;26.93;;;;;;;2.97;72.04;100334.81;1679234;85;21055;-69
2021/12/31 08:27:37;;;;;;;48.68;28.15;;;;;;;2.96;72.04;100330.05;1679559;85;21012;-69
2021/12/31 08:30:07;;;;;;;47.10;27.55;;;;;;;2.95;72.06;100328.41;1679622;85;21160;-68
2021/12/31 08:32:35;;;;;;;47.80;29.20;;;;;;;2.96;72.06;100330.05;1679678;85;21016;-68
2021/12/31 08:35:05;;;;;;;46.05;26.87;;;;;;;2.97;72.07;100327.70;1679150;85;21573;-68
2021/12/31 08:37:32;;;;;;;48.98;28.75;;;;;;;2.95;72.09;100326.29;1679670;85;21443;-69
2021/12/31 08:39:59;;;;;;;50.65;27.50;;;;;;;2.95;72.19;100324.97;1679230;85;21126;-68
2021/12/31 08:42:26;;;;;;;49.67;28.57;;;;;;;2.99;72.25;100328.80;1679634;85;21163;-68
2021/12/31 08:44:55;;;;;;;44.80;27.05;;;;;;;3.03;72.24;100329.49;1679056;85;45600;-67
2021/12/31 08:47:24;;;;;;;48.58;28.15;;;;;;;3.09;72.35;100321.73;1679232;85;21086;-69
2021/12/31 08:49:51;;;;;;;48.10;28.15;;;;;;;3.14;72.43;100310.84;1677887;85;21102;-68
2021/12/31 08:52:18;;;;;;;47.38;28.30;;;;;;;3.20;72.48;100316.59;1677996;85;20957;-69
2021/12/31 08:54:47;;;;;;;46.37;27.02;;;;;;;3.27;72.58;100323.14;1677925;85;21543;-69
2021/12/31 08:57:15;;;;;;;46.15;27.17;;;;;;;3.34;72.52;100329.17;1678144;85;21012;-68
2021/12/31 08:59:41;;;;;;;50.73;28.10;;;;;;;3.35;72.42;100329.97;1678280;85;21047;-69
2021/12/31 09:02:10;;;;;;;45.85;27.45;;;;;;;3.38;72.32;100332.99;1651144;85;20960;-68
2021/12/31 09:04:37;;;;;;;47.08;27.37;;;;;;;3.36;72.29;100320.53;1677760;85;21055;-68
2021/12/31 09:07:04;;;;;;;47.00;27.65;;;;;;;3.41;72.41;100319.88;1678155;85;21802;-69
2021/12/31 09:09:31;;;;;;;45.63;26.37;;;;;;;3.45;72.45;100320.54;1677886;85;21035;-69
2021/12/31 09:11:57;;;;;;;50.78;28.35;;;;;;;3.52;72.43;100323.96;1678101;85;20957;-68
2021/12/31 09:14:24;;;;;;;48.45;26.73;;;;;;;3.55;72.44;100324.53;1677933;85;21557;-68
2021/12/31 09:16:51;;;;;;;49.93;28.73;;;;;;;3.60;72.48;100329.47;1677542;84;21609;-70
2021/12/31 09:19:18;;;;;;;46.98;27.52;;;;;;;3.67;72.37;100316.21;1677929;85;22691;-71
2021/12/31 09:21:44;;;;;;;46.23;26.80;;;;;;;3.69;72.24;100311.01;1678086;85;21044;-68
2021/12/31 09:24:11;;;;;;;50.40;28.32;;;;;;;3.74;72.23;100309.02;1679537;85;20980;-70
2021/12/31 09:26:37;;;;;;;46.77;27.52;;;;;;;3.75;72.22;100294.78;1678981;85;21011;-69
2021/12/31 09:29:04;;;;;;;45.00;26.60;;;;;;;3.80;72.15;100300.23;1679631;85;21102;-68
2021/12/31 09:31:30;;;;;;;44.42;25.40;;;;;;;3.79;72.06;100294.66;1679645;85;21492;-68
2021/12/31 09:33:57;;;;;;;47.90;27.55;;;;;;;3.76;72.02;100295.09;1679576;85;21052;-68
2021/12/31 09:36:23;;;;;;;45.75;27.37;;;;;;;3.77;72.08;100294.06;1679633;85;20976;-69
2021/12/31 09:38:51;;;;;;;44.55;27.30;;;;;;;3.83;72.14;100291.07;1679447;85;21079;-68
2021/12/31 09:41:18;;;;;;;46.18;26.65;;;;;;;3.90;72.20;100288.64;1679718;85;21093;-68
2021/12/31 09:43:51;;;;;;;43.87;26.00;;;;;;;3.93;72.15;100289.53;1679629;85;21123;-68
2021/12/31 09:46:19;;;;;;;44.88;26.48;;;;;;;3.97;72.12;100296.50;1679450;85;21546;-68
2021/12/31 09:48:46;;;;;;;42.25;24.52;;;;;;;3.95;71.99;100289.33;1679492;85;21530;-68
2021/12/31 09:51:13;;;;;;;40.95;23.38;;;;;;;3.92;72.01;100288.44;1679609;85;21043;-67
2021/12/31 09:53:39;;;;;;;43.70;25.23;;;;;;;3.92;72.09;100293.73;1679570;85;20964;-68
2021/12/31 09:56:07;;;;;;;37.40;22.48;;;;;;;3.91;72.07;100293.41;1678163;85;21031;-68
2021/12/31 09:58:36;;;;;;;43.80;25.35;;;;;;;3.86;72.16;100287.47;1678104;84;21094;-68
2021/12/31 10:01:04;;;;;;;47.13;27.00;;;;;;;3.77;72.37;100287.45;1678029;85;21023;-68
2021/12/31 10:03:33;;;;;;;47.67;26.10;;;;;;;3.77;72.59;100282.17;1677968;85;21028;-68
2021/12/31 10:06:08;;;;;;;45.12;24.75;;;;;;;3.79;72.70;100284.09;1678036;85;21483;-68
2021/12/31 10:08:44;;;;;;;44.03;25.15;;;;;;;3.78;72.82;100280.34;1677914;85;21104;-67
2021/12/31 10:11:23;;;;;;;40.12;22.87;;;;;;;3.84;72.97;100279.47;1677947;85;21578;-68
2021/12/31 10:13:59;;;;;;;43.58;23.55;;;;;;;3.89;73.05;100283.59;1678298;85;21016;-67
2021/12/31 10:16:39;;;;;;;44.67;23.60;;;;;;;3.92;73.18;100281.84;1678757;85;20972;-67
2021/12/31 10:19:18;;;;;;;43.25;24.50;;;;;;;3.93;73.26;100284.24;1679618;85;20964;-67
2021/12/31 10:21:51;;;;;;;48.30;26.17;;;;;;;3.92;73.32;100270.75;1678758;83;21316;-68
2021/12/31 10:24:33;;;;;;;45.00;23.73;;;;;;;3.92;73.45;100268.63;1679670;85;20996;-68
2021/12/31 10:27:12;;;;;;;45.98;24.70;;;;;;;3.96;73.60;100264.50;1679558;85;21012;-67
2021/12/31 10:29:58;;;;;;;45.80;24.02;;;;;;;3.99;73.69;100264.88;1679345;85;21511;-68
2021/12/31 10:32:29;;;;;;;42.80;24.77;;;;;;;4.02;73.88;100260.98;1679737;85;20997;-67
2021/12/31 10:35:18;;;;;;;47.23;25.95;;;;;;;4.13;74.00;100259.43;1679479;84;21566;-68
2021/12/31 10:37:58;;;;;;;41.95;24.12;;;;;;;4.25;73.96;100252.90;1679334;85;21020;-67
2021/12/31 10:40:31;;;;;;;46.25;25.82;;;;;;;4.39;73.93;100245.88;1679676;85;21059;-68
2021/12/31 10:43:21;;;;;;;45.83;24.65;;;;;;;4.44;73.95;100247.84;1679426;85;20976;-68
2021/12/31 10:46:08;;;;;;;46.25;25.10;;;;;;;4.57;73.83;100251.63;1678420;85;21503;-68
2021/12/31 10:48:48;;;;;;;39.80;21.65;;;;;;;4.63;73.74;100239.34;1678190;84;21119;-68
2021/12/31 10:51:19;;;;;;;46.90;25.55;;;;;;;4.65;73.59;100243.39;1677109;85;21068;-68
2021/12/31 10:53:55;;;;;;;45.73;26.97;;;;;;;4.65;73.42;100241.27;1674472;85;21134;-68
2021/12/31 10:56:19;;;;;;;47.88;25.20;;;;;;;4.68;73.47;100243.47;1678487;85;20975;-68
2021/12/31 10:58:49;;;;;;;44.03;25.15;;;;;;;4.76;73.54;100235.19;1678137;85;21118;-68
2021/12/31 11:01:18;;;;;;;44.67;24.85;;;;;;;4.83;73.46;100230.60;1638542;85;21451;-68
2021/12/31 11:03:45;;;;;;;49.15;25.90;;;;;;;4.88;73.39;100230.73;1677461;85;21137;-68
2021/12/31 11:06:13;;;;;;;47.08;25.60;;;;;;;4.87;73.23;100231.78;1678050;85;20976;-68
2021/12/31 11:08:45;;;;;;;43.70;24.52;;;;;;;4.83;73.18;100225.30;1651675;85;22084;-69
2021/12/31 11:11:15;;;;;;;41.85;24.20;;;;;;;4.83;73.12;100233.25;1678274;85;21055;-68
2021/12/31 11:13:45;;;;;;;44.55;24.37;;;;;;;4.81;73.20;100235.85;1677920;85;21224;-67
2021/12/31 11:16:13;;;;;;;42.30;24.37;;;;;;;4.74;73.16;100234.63;1677817;85;21036;-67
2021/12/31 11:18:40;;;;;;;40.10;22.52;;;;;;;4.66;73.22;100238.91;1677852;85;21170;-69
2021/12/31 11:21:09;;;;;;;44.13;23.75;;;;;;;4.64;73.39;100235.66;1677945;85;21024;-69
2021/12/31 11:23:36;;;;;;;39.70;22.90;;;;;;;4.68;73.50;100226.27;1678200;85;21035;-68